sensor_id;sensor_type;location;lat;lon;timestamp;P1;durP1;ratioP1;P2;durP2;ratioP2
72951;SDS011;61102;51.956;5.878;2023-02-15T00:01:39;11.38;;;4.43;;
72951;SDS011;61102;51.956;5.878;2023-02-15T00:04:06;11.50;;;4.18;;
72951;SDS011;61102;51.956;5.878;2023-02-15T00:06:33;9.38;;;3.45;;
72951;SDS011;61102;51.956;5.878;2023-02-15T00:08:59;11.98;;;4.20;;
72951;SDS011;61102;51.956;5.878;2023-02-15T00:11:26;12.02;;;4.20;;
72951;SDS011;61102;51.956;5.878;2023-02-15T00:14:15;9.65;;;3.13;;
72951;SDS011;61102;51.956;5.878;2023-02-15T00:16:44;10.15;;;3.80;;
72951;SDS011;61102;51.956;5.878;2023-02-15T00:19:11;11.48;;;3.90;;
72951;SDS011;61102;51.956;5.878;2023-02-15T00:24:06;9.93;;;3.05;;
72951;SDS011;61102;51.956;5.878;2023-02-15T00:26:33;8.75;;;2.80;;
72951;SDS011;61102;51.956;5.878;2023-02-15T00:29:00;10.30;;;3.35;;
72951;SDS011;61102;51.956;5.878;2023-02-15T00:31:28;8.38;;;2.95;;
72951;SDS011;61102;51.956;5.878;2023-02-15T00:34:00;9.32;;;3.70;;
72951;SDS011;61102;51.956;5.878;2023-02-15T00:36:32;11.00;;;3.75;;
72951;SDS011;61102;51.956;5.878;2023-02-15T00:38:58;11.55;;;3.75;;
72951;SDS011;61102;51.956;5.878;2023-02-15T00:41:24;12.27;;;5.28;;
72951;SDS011;61102;51.956;5.878;2023-02-15T00:43:51;11.57;;;4.20;;
72951;SDS011;61102;51.956;5.878;2023-02-15T00:46:17;11.70;;;4.45;;
72951;SDS011;61102;51.956;5.878;2023-02-15T00:48:44;12.13;;;4.57;;
72951;SDS011;61102;51.956;5.878;2023-02-15T00:51:10;11.93;;;3.88;;
72951;SDS011;61102;51.956;5.878;2023-02-15T00:53:37;11.02;;;4.15;;
72951;SDS011;61102;51.956;5.878;2023-02-15T00:56:03;12.88;;;5.15;;
72951;SDS011;61102;51.956;5.878;2023-02-15T00:58:29;14.02;;;5.10;;
72951;SDS011;61102;51.956;5.878;2023-02-15T01:01:01;13.00;;;4.65;;
72951;SDS011;61102;51.956;5.878;2023-02-15T01:03:30;10.13;;;3.20;;
72951;SDS011;61102;51.956;5.878;2023-02-15T01:05:56;10.60;;;4.35;;
72951;SDS011;61102;51.956;5.878;2023-02-15T01:08:22;10.02;;;3.80;;
72951;SDS011;61102;51.956;5.878;2023-02-15T01:10:48;10.77;;;3.88;;
72951;SDS011;61102;51.956;5.878;2023-02-15T01:13:15;10.07;;;3.47;;
72951;SDS011;61102;51.956;5.878;2023-02-15T01:15:42;9.88;;;3.47;;
72951;SDS011;61102;51.956;5.878;2023-02-15T01:18:09;9.60;;;3.40;;
72951;SDS011;61102;51.956;5.878;2023-02-15T01:20:37;9.38;;;3.13;;
72951;SDS011;61102;51.956;5.878;2023-02-15T01:23:07;9.45;;;3.10;;
72951;SDS011;61102;51.956;5.878;2023-02-15T01:25:34;9.93;;;3.35;;
72951;SDS011;61102;51.956;5.878;2023-02-15T01:28:01;11.18;;;3.92;;
72951;SDS011;61102;51.956;5.878;2023-02-15T01:30:28;12.68;;;4.05;;
72951;SDS011;61102;51.956;5.878;2023-02-15T01:32:54;11.40;;;4.00;;
72951;SDS011;61102;51.956;5.878;2023-02-15T01:35:20;8.98;;;3.08;;
72951;SDS011;61102;51.956;5.878;2023-02-15T01:37:47;9.25;;;3.47;;
72951;SDS011;61102;51.956;5.878;2023-02-15T01:40:14;9.35;;;3.13;;
72951;SDS011;61102;51.956;5.878;2023-02-15T01:42:43;12.05;;;3.83;;
72951;SDS011;61102;51.956;5.878;2023-02-15T01:48:05;9.07;;;2.80;;
72951;SDS011;61102;51.956;5.878;2023-02-15T01:50:46;10.43;;;4.18;;
72951;SDS011;61102;51.956;5.878;2023-02-15T01:53:21;9.82;;;3.33;;
72951;SDS011;61102;51.956;5.878;2023-02-15T01:55:54;9.15;;;3.00;;
72951;SDS011;61102;51.956;5.878;2023-02-15T01:58:26;11.48;;;3.92;;
72951;SDS011;61102;51.956;5.878;2023-02-15T02:00:54;13.15;;;3.90;;
72951;SDS011;61102;51.956;5.878;2023-02-15T02:05:58;10.80;;;3.53;;
72951;SDS011;61102;51.956;5.878;2023-02-15T02:08:24;11.68;;;3.45;;
72951;SDS011;61102;51.956;5.878;2023-02-15T02:10:50;10.55;;;3.38;;
72951;SDS011;61102;51.956;5.878;2023-02-15T02:13:16;11.52;;;3.95;;
72951;SDS011;61102;51.956;5.878;2023-02-15T02:32:29;11.85;;;3.85;;
72951;SDS011;61102;51.956;5.878;2023-02-15T02:38:08;9.52;;;3.10;;
72951;SDS011;61102;51.956;5.878;2023-02-15T02:46:22;8.63;;;2.78;;
72951;SDS011;61102;51.956;5.878;2023-02-15T02:48:57;8.73;;;2.75;;
72951;SDS011;61102;51.956;5.878;2023-02-15T02:51:23;9.38;;;2.90;;
72951;SDS011;61102;51.956;5.878;2023-02-15T02:53:51;10.48;;;3.60;;
72951;SDS011;61102;51.956;5.878;2023-02-15T02:56:24;10.07;;;3.65;;
72951;SDS011;61102;51.956;5.878;2023-02-15T03:04:21;9.20;;;3.10;;
72951;SDS011;61102;51.956;5.878;2023-02-15T03:06:55;7.15;;;2.35;;
72951;SDS011;61102;51.956;5.878;2023-02-15T03:09:29;9.23;;;3.15;;
72951;SDS011;61102;51.956;5.878;2023-02-15T03:12:22;9.00;;;2.75;;
72951;SDS011;61102;51.956;5.878;2023-02-15T03:15:00;9.65;;;3.42;;
72951;SDS011;61102;51.956;5.878;2023-02-15T03:17:33;11.45;;;3.28;;
72951;SDS011;61102;51.956;5.878;2023-02-15T03:20:03;7.82;;;2.50;;
72951;SDS011;61102;51.956;5.878;2023-02-15T03:22:36;9.85;;;3.40;;
72951;SDS011;61102;51.956;5.878;2023-02-15T03:25:21;8.55;;;2.85;;
72951;SDS011;61102;51.956;5.878;2023-02-15T03:27:54;9.73;;;3.15;;
72951;SDS011;61102;51.956;5.878;2023-02-15T03:30:31;8.05;;;2.75;;
72951;SDS011;61102;51.956;5.878;2023-02-15T03:32:59;8.82;;;2.90;;
72951;SDS011;61102;51.956;5.878;2023-02-15T03:35:28;9.45;;;3.40;;
72951;SDS011;61102;51.956;5.878;2023-02-15T03:38:02;9.38;;;3.05;;
72951;SDS011;61102;51.956;5.878;2023-02-15T03:40:38;8.95;;;2.97;;
72951;SDS011;61102;51.956;5.878;2023-02-15T03:43:48;8.27;;;2.72;;
72951;SDS011;61102;51.956;5.878;2023-02-15T03:50:09;8.15;;;2.65;;
72951;SDS011;61102;51.956;5.878;2023-02-15T03:52:14;9.95;;;2.30;;
72951;SDS011;61102;51.956;5.878;2023-02-15T03:54:41;8.75;;;2.67;;
72951;SDS011;61102;51.956;5.878;2023-02-15T03:57:13;9.88;;;2.90;;
72951;SDS011;61102;51.956;5.878;2023-02-15T03:59:59;8.38;;;2.47;;
72951;SDS011;61102;51.956;5.878;2023-02-15T04:02:49;8.13;;;2.92;;
72951;SDS011;61102;51.956;5.878;2023-02-15T04:05:38;9.48;;;2.88;;
72951;SDS011;61102;51.956;5.878;2023-02-15T04:08:05;9.10;;;3.05;;
72951;SDS011;61102;51.956;5.878;2023-02-15T04:10:31;10.73;;;3.45;;
72951;SDS011;61102;51.956;5.878;2023-02-15T04:13:15;10.77;;;4.00;;
72951;SDS011;61102;51.956;5.878;2023-02-15T04:15:42;10.88;;;3.90;;
72951;SDS011;61102;51.956;5.878;2023-02-15T04:18:26;9.65;;;3.45;;
72951;SDS011;61102;51.956;5.878;2023-02-15T04:21:11;12.10;;;4.20;;
72951;SDS011;61102;51.956;5.878;2023-02-15T04:23:55;10.38;;;3.78;;
72951;SDS011;61102;51.956;5.878;2023-02-15T04:26:40;8.90;;;3.00;;
72951;SDS011;61102;51.956;5.878;2023-02-15T04:29:06;8.55;;;2.70;;
72951;SDS011;61102;51.956;5.878;2023-02-15T04:31:33;8.93;;;2.75;;
72951;SDS011;61102;51.956;5.878;2023-02-15T04:33:59;8.82;;;2.67;;
72951;SDS011;61102;51.956;5.878;2023-02-15T04:36:25;7.50;;;2.60;;
72951;SDS011;61102;51.956;5.878;2023-02-15T04:38:51;9.23;;;3.15;;
72951;SDS011;61102;51.956;5.878;2023-02-15T04:41:17;9.23;;;3.00;;
72951;SDS011;61102;51.956;5.878;2023-02-15T04:43:43;8.27;;;2.47;;
72951;SDS011;61102;51.956;5.878;2023-02-15T04:46:10;10.07;;;2.60;;
72951;SDS011;61102;51.956;5.878;2023-02-15T04:48:36;9.35;;;2.85;;
72951;SDS011;61102;51.956;5.878;2023-02-15T04:51:05;9.02;;;2.80;;
72951;SDS011;61102;51.956;5.878;2023-02-15T04:53:33;8.45;;;2.60;;
72951;SDS011;61102;51.956;5.878;2023-02-15T04:56:00;8.10;;;2.58;;
72951;SDS011;61102;51.956;5.878;2023-02-15T04:58:27;8.23;;;2.50;;
72951;SDS011;61102;51.956;5.878;2023-02-15T05:00:56;10.90;;;3.65;;
72951;SDS011;61102;51.956;5.878;2023-02-15T05:03:23;8.10;;;2.70;;
72951;SDS011;61102;51.956;5.878;2023-02-15T05:05:50;8.60;;;2.60;;
72951;SDS011;61102;51.956;5.878;2023-02-15T05:08:16;8.38;;;2.60;;
72951;SDS011;61102;51.956;5.878;2023-02-15T05:10:43;8.68;;;2.83;;
72951;SDS011;61102;51.956;5.878;2023-02-15T05:13:09;10.57;;;3.63;;
72951;SDS011;61102;51.956;5.878;2023-02-15T05:15:35;8.50;;;3.28;;
72951;SDS011;61102;51.956;5.878;2023-02-15T05:18:02;10.13;;;3.50;;
72951;SDS011;61102;51.956;5.878;2023-02-15T05:20:29;12.00;;;4.63;;
72951;SDS011;61102;51.956;5.878;2023-02-15T05:22:55;9.00;;;2.78;;
72951;SDS011;61102;51.956;5.878;2023-02-15T05:25:21;12.70;;;4.47;;
72951;SDS011;61102;51.956;5.878;2023-02-15T05:28:08;10.70;;;3.50;;
72951;SDS011;61102;51.956;5.878;2023-02-15T05:30:45;11.73;;;4.07;;
72951;SDS011;61102;51.956;5.878;2023-02-15T05:33:13;10.07;;;3.58;;
72951;SDS011;61102;51.956;5.878;2023-02-15T05:35:39;12.27;;;4.88;;
72951;SDS011;61102;51.956;5.878;2023-02-15T05:38:06;7.97;;;2.72;;
72951;SDS011;61102;51.956;5.878;2023-02-15T05:40:32;9.68;;;2.95;;
72951;SDS011;61102;51.956;5.878;2023-02-15T05:42:58;7.45;;;2.45;;
72951;SDS011;61102;51.956;5.878;2023-02-15T05:45:24;10.43;;;3.00;;
72951;SDS011;61102;51.956;5.878;2023-02-15T05:47:50;7.28;;;2.22;;
72951;SDS011;61102;51.956;5.878;2023-02-15T05:50:17;9.50;;;2.67;;
72951;SDS011;61102;51.956;5.878;2023-02-15T05:52:43;9.00;;;2.53;;
72951;SDS011;61102;51.956;5.878;2023-02-15T05:55:09;8.65;;;2.55;;
72951;SDS011;61102;51.956;5.878;2023-02-15T05:57:36;8.98;;;2.67;;
72951;SDS011;61102;51.956;5.878;2023-02-15T06:00:03;9.65;;;2.92;;
72951;SDS011;61102;51.956;5.878;2023-02-15T06:02:37;9.52;;;3.40;;
72951;SDS011;61102;51.956;5.878;2023-02-15T06:05:04;9.35;;;2.88;;
72951;SDS011;61102;51.956;5.878;2023-02-15T06:07:31;8.85;;;3.03;;
72951;SDS011;61102;51.956;5.878;2023-02-15T06:09:57;9.25;;;2.83;;
72951;SDS011;61102;51.956;5.878;2023-02-15T06:12:24;10.10;;;3.60;;
72951;SDS011;61102;51.956;5.878;2023-02-15T06:14:50;8.52;;;2.83;;
72951;SDS011;61102;51.956;5.878;2023-02-15T06:17:16;10.40;;;3.40;;
72951;SDS011;61102;51.956;5.878;2023-02-15T06:19:43;9.48;;;3.17;;
72951;SDS011;61102;51.956;5.878;2023-02-15T06:22:09;9.20;;;2.80;;
72951;SDS011;61102;51.956;5.878;2023-02-15T06:24:35;9.32;;;2.92;;
72951;SDS011;61102;51.956;5.878;2023-02-15T06:27:02;8.10;;;2.40;;
72951;SDS011;61102;51.956;5.878;2023-02-15T06:29:28;8.93;;;2.60;;
72951;SDS011;61102;51.956;5.878;2023-02-15T06:31:54;9.77;;;3.08;;
72951;SDS011;61102;51.956;5.878;2023-02-15T06:34:20;11.50;;;3.40;;
72951;SDS011;61102;51.956;5.878;2023-02-15T06:36:47;10.48;;;3.80;;
72951;SDS011;61102;51.956;5.878;2023-02-15T06:39:13;12.18;;;4.32;;
72951;SDS011;61102;51.956;5.878;2023-02-15T06:41:39;10.45;;;3.42;;
72951;SDS011;61102;51.956;5.878;2023-02-15T06:44:05;10.43;;;3.72;;
72951;SDS011;61102;51.956;5.878;2023-02-15T06:46:32;14.95;;;5.03;;
72951;SDS011;61102;51.956;5.878;2023-02-15T06:48:58;16.45;;;6.03;;
72951;SDS011;61102;51.956;5.878;2023-02-15T06:51:24;10.88;;;3.40;;
72951;SDS011;61102;51.956;5.878;2023-02-15T06:53:50;9.40;;;3.03;;
72951;SDS011;61102;51.956;5.878;2023-02-15T06:56:16;10.40;;;3.67;;
72951;SDS011;61102;51.956;5.878;2023-02-15T06:58:42;10.60;;;3.28;;
72951;SDS011;61102;51.956;5.878;2023-02-15T07:01:11;10.45;;;3.95;;
72951;SDS011;61102;51.956;5.878;2023-02-15T07:03:37;9.82;;;3.22;;
72951;SDS011;61102;51.956;5.878;2023-02-15T07:09:13;10.68;;;3.78;;
72951;SDS011;61102;51.956;5.878;2023-02-15T07:11:40;11.48;;;3.67;;
72951;SDS011;61102;51.956;5.878;2023-02-15T07:14:24;12.88;;;4.38;;
72951;SDS011;61102;51.956;5.878;2023-02-15T07:16:51;12.15;;;4.15;;
72951;SDS011;61102;51.956;5.878;2023-02-15T07:19:17;10.45;;;3.28;;
72951;SDS011;61102;51.956;5.878;2023-02-15T07:21:43;9.68;;;3.35;;
72951;SDS011;61102;51.956;5.878;2023-02-15T07:24:11;12.10;;;3.75;;
72951;SDS011;61102;51.956;5.878;2023-02-15T07:26:37;11.95;;;3.78;;
72951;SDS011;61102;51.956;5.878;2023-02-15T07:29:03;13.65;;;4.53;;
72951;SDS011;61102;51.956;5.878;2023-02-15T07:31:30;13.63;;;4.63;;
72951;SDS011;61102;51.956;5.878;2023-02-15T07:33:56;11.13;;;3.70;;
72951;SDS011;61102;51.956;5.878;2023-02-15T07:36:22;11.60;;;4.35;;
72951;SDS011;61102;51.956;5.878;2023-02-15T07:38:48;13.50;;;4.78;;
72951;SDS011;61102;51.956;5.878;2023-02-15T07:41:15;10.35;;;3.63;;
72951;SDS011;61102;51.956;5.878;2023-02-15T07:43:42;13.82;;;4.75;;
72951;SDS011;61102;51.956;5.878;2023-02-15T07:46:11;13.10;;;4.60;;
72951;SDS011;61102;51.956;5.878;2023-02-15T07:48:40;11.88;;;4.47;;
72951;SDS011;61102;51.956;5.878;2023-02-15T07:51:08;13.70;;;4.70;;
72951;SDS011;61102;51.956;5.878;2023-02-15T07:53:35;13.73;;;5.22;;
72951;SDS011;61102;51.956;5.878;2023-02-15T07:56:04;20.38;;;6.80;;
72951;SDS011;61102;51.956;5.878;2023-02-15T07:58:32;16.27;;;5.30;;
72951;SDS011;61102;51.956;5.878;2023-02-15T08:01:22;14.07;;;4.97;;
72951;SDS011;61102;51.956;5.878;2023-02-15T08:03:52;15.65;;;6.28;;
72951;SDS011;61102;51.956;5.878;2023-02-15T08:06:20;12.43;;;4.40;;
72951;SDS011;61102;51.956;5.878;2023-02-15T08:11:21;15.95;;;5.30;;
72951;SDS011;61102;51.956;5.878;2023-02-15T08:13:52;16.48;;;5.78;;
72951;SDS011;61102;51.956;5.878;2023-02-15T08:16:21;13.05;;;5.10;;
72951;SDS011;61102;51.956;5.878;2023-02-15T08:19:06;13.77;;;5.47;;
72951;SDS011;61102;51.956;5.878;2023-02-15T08:21:37;17.02;;;6.75;;
72951;SDS011;61102;51.956;5.878;2023-02-15T08:24:06;14.02;;;5.82;;
72951;SDS011;61102;51.956;5.878;2023-02-15T08:28:59;14.07;;;5.05;;
72951;SDS011;61102;51.956;5.878;2023-02-15T08:31:26;18.95;;;7.43;;
72951;SDS011;61102;51.956;5.878;2023-02-15T08:33:53;17.00;;;6.07;;
72951;SDS011;61102;51.956;5.878;2023-02-15T08:38:48;15.23;;;5.63;;
72951;SDS011;61102;51.956;5.878;2023-02-15T08:43:42;13.38;;;5.22;;
72951;SDS011;61102;51.956;5.878;2023-02-15T08:46:11;14.68;;;5.25;;
72951;SDS011;61102;51.956;5.878;2023-02-15T08:48:39;14.40;;;4.75;;
72951;SDS011;61102;51.956;5.878;2023-02-15T08:51:09;15.27;;;5.25;;
72951;SDS011;61102;51.956;5.878;2023-02-15T08:53:39;16.67;;;6.70;;
72951;SDS011;61102;51.956;5.878;2023-02-15T08:56:06;17.83;;;7.45;;
72951;SDS011;61102;51.956;5.878;2023-02-15T08:58:33;17.20;;;6.50;;
72951;SDS011;61102;51.956;5.878;2023-02-15T09:01:01;15.52;;;5.93;;
72951;SDS011;61102;51.956;5.878;2023-02-15T09:03:36;13.55;;;5.25;;
72951;SDS011;61102;51.956;5.878;2023-02-15T09:06:39;15.73;;;6.07;;
72951;SDS011;61102;51.956;5.878;2023-02-15T09:09:16;14.48;;;5.43;;
72951;SDS011;61102;51.956;5.878;2023-02-15T09:15:07;18.83;;;7.82;;
72951;SDS011;61102;51.956;5.878;2023-02-15T09:18:15;17.35;;;7.10;;
72951;SDS011;61102;51.956;5.878;2023-02-15T09:24:49;22.85;;;9.02;;
72951;SDS011;61102;51.956;5.878;2023-02-15T09:27:52;17.13;;;7.03;;
72951;SDS011;61102;51.956;5.878;2023-02-15T09:30:47;18.17;;;7.68;;
72951;SDS011;61102;51.956;5.878;2023-02-15T09:33:32;17.20;;;6.93;;
72951;SDS011;61102;51.956;5.878;2023-02-15T09:36:00;14.27;;;6.00;;
72951;SDS011;61102;51.956;5.878;2023-02-15T09:38:40;16.58;;;6.82;;
72951;SDS011;61102;51.956;5.878;2023-02-15T09:44:08;16.35;;;6.85;;
72951;SDS011;61102;51.956;5.878;2023-02-15T09:46:58;13.77;;;5.25;;
72951;SDS011;61102;51.956;5.878;2023-02-15T09:49:52;15.48;;;6.70;;
72951;SDS011;61102;51.956;5.878;2023-02-15T10:16:55;14.13;;;5.75;;
72951;SDS011;61102;51.956;5.878;2023-02-15T10:22:28;15.00;;;6.18;;
72951;SDS011;61102;51.956;5.878;2023-02-15T10:28:06;16.60;;;6.78;;
72951;SDS011;61102;51.956;5.878;2023-02-15T10:30:44;22.45;;;9.48;;
72951;SDS011;61102;51.956;5.878;2023-02-15T10:39:18;15.15;;;6.10;;
72951;SDS011;61102;51.956;5.878;2023-02-15T10:52:53;17.55;;;7.75;;
72951;SDS011;61102;51.956;5.878;2023-02-15T10:55:25;15.48;;;6.43;;
72951;SDS011;61102;51.956;5.878;2023-02-15T11:03:53;20.00;;;8.75;;
72951;SDS011;61102;51.956;5.878;2023-02-15T11:06:36;19.50;;;8.63;;
72951;SDS011;61102;51.956;5.878;2023-02-15T11:09:12;25.70;;;10.18;;
72951;SDS011;61102;51.956;5.878;2023-02-15T11:11:41;24.42;;;10.38;;
72951;SDS011;61102;51.956;5.878;2023-02-15T11:14:14;17.65;;;7.53;;
72951;SDS011;61102;51.956;5.878;2023-02-15T11:16:49;23.52;;;9.55;;
72951;SDS011;61102;51.956;5.878;2023-02-15T11:19:22;21.48;;;9.32;;
72951;SDS011;61102;51.956;5.878;2023-02-15T11:21:54;14.50;;;5.90;;
72951;SDS011;61102;51.956;5.878;2023-02-15T11:24:26;21.27;;;9.00;;
72951;SDS011;61102;51.956;5.878;2023-02-15T11:26:57;19.08;;;8.10;;
72951;SDS011;61102;51.956;5.878;2023-02-15T11:29:38;24.20;;;9.95;;
72951;SDS011;61102;51.956;5.878;2023-02-15T11:32:20;24.08;;;11.80;;
72951;SDS011;61102;51.956;5.878;2023-02-15T11:34:53;21.05;;;9.57;;
72951;SDS011;61102;51.956;5.878;2023-02-15T11:40:34;16.35;;;7.13;;
72951;SDS011;61102;51.956;5.878;2023-02-15T11:43:11;21.35;;;9.93;;
72951;SDS011;61102;51.956;5.878;2023-02-15T11:45:43;24.98;;;9.75;;
72951;SDS011;61102;51.956;5.878;2023-02-15T11:48:12;19.92;;;8.70;;
72951;SDS011;61102;51.956;5.878;2023-02-15T11:50:40;20.88;;;9.13;;
72951;SDS011;61102;51.956;5.878;2023-02-15T11:53:16;24.50;;;11.07;;
72951;SDS011;61102;51.956;5.878;2023-02-15T11:55:47;26.40;;;12.32;;
72951;SDS011;61102;51.956;5.878;2023-02-15T12:01:46;19.52;;;6.80;;
72951;SDS011;61102;51.956;5.878;2023-02-15T12:04:24;14.45;;;5.82;;
72951;SDS011;61102;51.956;5.878;2023-02-15T12:10:02;19.65;;;9.23;;
72951;SDS011;61102;51.956;5.878;2023-02-15T12:12:37;21.40;;;10.52;;
72951;SDS011;61102;51.956;5.878;2023-02-15T12:15:05;18.33;;;7.97;;
72951;SDS011;61102;51.956;5.878;2023-02-15T12:17:38;22.92;;;10.63;;
72951;SDS011;61102;51.956;5.878;2023-02-15T12:20:29;21.30;;;10.55;;
72951;SDS011;61102;51.956;5.878;2023-02-15T12:23:00;21.65;;;10.15;;
72951;SDS011;61102;51.956;5.878;2023-02-15T12:30:48;23.20;;;10.25;;
72951;SDS011;61102;51.956;5.878;2023-02-15T12:35:56;21.58;;;10.90;;
72951;SDS011;61102;51.956;5.878;2023-02-15T12:38:35;18.98;;;7.80;;
72951;SDS011;61102;51.956;5.878;2023-02-15T12:41:04;16.10;;;6.57;;
72951;SDS011;61102;51.956;5.878;2023-02-15T12:43:47;17.60;;;7.65;;
72951;SDS011;61102;51.956;5.878;2023-02-15T12:46:19;17.77;;;7.22;;
72951;SDS011;61102;51.956;5.878;2023-02-15T12:49:04;16.13;;;5.57;;
72951;SDS011;61102;51.956;5.878;2023-02-15T12:56:58;26.52;;;11.05;;
72951;SDS011;61102;51.956;5.878;2023-02-15T12:59:25;23.17;;;9.93;;
72951;SDS011;61102;51.956;5.878;2023-02-15T13:01:52;24.92;;;10.27;;
72951;SDS011;61102;51.956;5.878;2023-02-15T13:04:26;19.20;;;9.35;;
72951;SDS011;61102;51.956;5.878;2023-02-15T13:06:55;21.38;;;9.90;;
72951;SDS011;61102;51.956;5.878;2023-02-15T13:14:44;20.30;;;9.45;;
72951;SDS011;61102;51.956;5.878;2023-02-15T13:17:13;18.48;;;7.70;;
72951;SDS011;61102;51.956;5.878;2023-02-15T13:19:44;14.80;;;6.03;;
72951;SDS011;61102;51.956;5.878;2023-02-15T13:22:18;16.92;;;8.15;;
72951;SDS011;61102;51.956;5.878;2023-02-15T13:24:55;18.38;;;8.18;;
72951;SDS011;61102;51.956;5.878;2023-02-15T13:27:28;24.42;;;10.32;;
72951;SDS011;61102;51.956;5.878;2023-02-15T13:30:03;19.90;;;8.48;;
72951;SDS011;61102;51.956;5.878;2023-02-15T13:32:52;22.63;;;10.05;;
72951;SDS011;61102;51.956;5.878;2023-02-15T13:35:23;23.80;;;9.63;;
72951;SDS011;61102;51.956;5.878;2023-02-15T13:59:54;17.50;;;7.20;;
72951;SDS011;61102;51.956;5.878;2023-02-15T14:08:10;15.98;;;6.43;;
72951;SDS011;61102;51.956;5.878;2023-02-15T14:13:33;16.77;;;6.63;;
72951;SDS011;61102;51.956;5.878;2023-02-15T14:16:15;12.00;;;4.93;;
72951;SDS011;61102;51.956;5.878;2023-02-15T14:19:25;13.73;;;5.68;;
72951;SDS011;61102;51.956;5.878;2023-02-15T14:22:41;17.23;;;7.13;;
72951;SDS011;61102;51.956;5.878;2023-02-15T14:24:59;18.35;;;7.35;;
72951;SDS011;61102;51.956;5.878;2023-02-15T14:27:51;15.43;;;7.00;;
72951;SDS011;61102;51.956;5.878;2023-02-15T14:30:32;20.85;;;8.45;;
72951;SDS011;61102;51.956;5.878;2023-02-15T14:33:06;16.52;;;6.72;;
72951;SDS011;61102;51.956;5.878;2023-02-15T14:35:47;15.23;;;6.95;;
72951;SDS011;61102;51.956;5.878;2023-02-15T14:46:50;13.75;;;5.70;;
72951;SDS011;61102;51.956;5.878;2023-02-15T14:49:30;15.30;;;6.20;;
72951;SDS011;61102;51.956;5.878;2023-02-15T14:52:08;12.73;;;5.13;;
72951;SDS011;61102;51.956;5.878;2023-02-15T14:59:50;15.27;;;6.55;;
72951;SDS011;61102;51.956;5.878;2023-02-15T15:02:24;12.77;;;5.15;;
72951;SDS011;61102;51.956;5.878;2023-02-15T15:07:27;16.92;;;7.13;;
72951;SDS011;61102;51.956;5.878;2023-02-15T15:10:04;16.15;;;7.65;;
72951;SDS011;61102;51.956;5.878;2023-02-15T15:12:42;16.70;;;5.78;;
72951;SDS011;61102;51.956;5.878;2023-02-15T15:15:33;12.23;;;4.88;;
72951;SDS011;61102;51.956;5.878;2023-02-15T15:18:42;12.73;;;5.95;;
72951;SDS011;61102;51.956;5.878;2023-02-15T15:21:10;15.85;;;6.03;;
72951;SDS011;61102;51.956;5.878;2023-02-15T15:23:43;14.75;;;5.78;;
72951;SDS011;61102;51.956;5.878;2023-02-15T15:26:24;12.45;;;5.03;;
72951;SDS011;61102;51.956;5.878;2023-02-15T15:28:56;13.10;;;5.30;;
72951;SDS011;61102;51.956;5.878;2023-02-15T15:31:31;15.05;;;5.47;;
72951;SDS011;61102;51.956;5.878;2023-02-15T15:47:42;11.70;;;4.18;;
72951;SDS011;61102;51.956;5.878;2023-02-15T15:50:18;9.95;;;3.72;;
72951;SDS011;61102;51.956;5.878;2023-02-15T15:52:47;9.95;;;4.22;;
72951;SDS011;61102;51.956;5.878;2023-02-15T15:55:19;11.35;;;3.75;;
72951;SDS011;61102;51.956;5.878;2023-02-15T15:57:52;12.10;;;4.25;;
72951;SDS011;61102;51.956;5.878;2023-02-15T16:03:20;13.38;;;4.72;;
72951;SDS011;61102;51.956;5.878;2023-02-15T16:05:51;12.75;;;4.85;;
72951;SDS011;61102;51.956;5.878;2023-02-15T16:10:58;12.55;;;4.30;;
72951;SDS011;61102;51.956;5.878;2023-02-15T16:13:25;11.13;;;4.05;;
72951;SDS011;61102;51.956;5.878;2023-02-15T16:15:53;10.15;;;3.78;;
72951;SDS011;61102;51.956;5.878;2023-02-15T16:18:22;10.80;;;4.00;;
72951;SDS011;61102;51.956;5.878;2023-02-15T16:20:52;10.70;;;3.85;;
72951;SDS011;61102;51.956;5.878;2023-02-15T16:23:36;11.82;;;3.58;;
72951;SDS011;61102;51.956;5.878;2023-02-15T16:29:16;10.63;;;3.88;;
72951;SDS011;61102;51.956;5.878;2023-02-15T16:31:57;11.13;;;4.13;;
72951;SDS011;61102;51.956;5.878;2023-02-15T16:37:31;10.02;;;3.72;;
72951;SDS011;61102;51.956;5.878;2023-02-15T16:39:59;10.80;;;3.53;;
72951;SDS011;61102;51.956;5.878;2023-02-15T16:42:25;10.70;;;3.78;;
72951;SDS011;61102;51.956;5.878;2023-02-15T16:44:58;11.75;;;4.90;;
72951;SDS011;61102;51.956;5.878;2023-02-15T16:47:29;13.55;;;4.85;;
72951;SDS011;61102;51.956;5.878;2023-02-15T16:49:58;13.98;;;5.20;;
72951;SDS011;61102;51.956;5.878;2023-02-15T16:52:27;11.38;;;4.50;;
72951;SDS011;61102;51.956;5.878;2023-02-15T16:54:55;13.73;;;5.10;;
72951;SDS011;61102;51.956;5.878;2023-02-15T16:57:33;15.73;;;5.80;;
72951;SDS011;61102;51.956;5.878;2023-02-15T17:00:07;12.63;;;4.47;;
72951;SDS011;61102;51.956;5.878;2023-02-15T17:03:03;11.93;;;4.32;;
72951;SDS011;61102;51.956;5.878;2023-02-15T17:05:30;12.18;;;4.40;;
72951;SDS011;61102;51.956;5.878;2023-02-15T17:10:29;13.02;;;4.38;;
72951;SDS011;61102;51.956;5.878;2023-02-15T17:13:11;14.00;;;5.38;;
72951;SDS011;61102;51.956;5.878;2023-02-15T17:16:27;11.07;;;4.45;;
72951;SDS011;61102;51.956;5.878;2023-02-15T17:18:32;12.35;;;4.65;;
72951;SDS011;61102;51.956;5.878;2023-02-15T17:21:11;12.02;;;5.13;;
72951;SDS011;61102;51.956;5.878;2023-02-15T17:23:46;12.70;;;5.88;;
72951;SDS011;61102;51.956;5.878;2023-02-15T17:26:14;12.60;;;4.82;;
72951;SDS011;61102;51.956;5.878;2023-02-15T17:28:51;13.18;;;5.00;;
72951;SDS011;61102;51.956;5.878;2023-02-15T17:31:21;12.75;;;4.75;;
72951;SDS011;61102;51.956;5.878;2023-02-15T17:33:54;15.85;;;6.63;;
72951;SDS011;61102;51.956;5.878;2023-02-15T17:36:23;17.27;;;7.25;;
72951;SDS011;61102;51.956;5.878;2023-02-15T17:44:45;11.18;;;4.20;;
72951;SDS011;61102;51.956;5.878;2023-02-15T17:47:19;14.50;;;4.82;;
72951;SDS011;61102;51.956;5.878;2023-02-15T17:49:47;12.73;;;4.82;;
72951;SDS011;61102;51.956;5.878;2023-02-15T17:52:15;12.95;;;4.75;;
72951;SDS011;61102;51.956;5.878;2023-02-15T17:54:43;15.68;;;5.22;;
72951;SDS011;61102;51.956;5.878;2023-02-15T17:57:29;15.48;;;6.32;;
72951;SDS011;61102;51.956;5.878;2023-02-15T17:59:56;14.27;;;5.43;;
72951;SDS011;61102;51.956;5.878;2023-02-15T18:02:41;12.55;;;4.72;;
72951;SDS011;61102;51.956;5.878;2023-02-15T18:05:26;11.95;;;4.25;;
72951;SDS011;61102;51.956;5.878;2023-02-15T18:08:12;11.50;;;4.32;;
72951;SDS011;61102;51.956;5.878;2023-02-15T18:10:58;10.77;;;3.95;;
72951;SDS011;61102;51.956;5.878;2023-02-15T18:13:43;9.13;;;3.20;;
72951;SDS011;61102;51.956;5.878;2023-02-15T18:16:13;11.75;;;4.22;;
72951;SDS011;61102;51.956;5.878;2023-02-15T18:18:41;10.90;;;4.25;;
72951;SDS011;61102;51.956;5.878;2023-02-15T18:21:08;11.95;;;4.00;;
72951;SDS011;61102;51.956;5.878;2023-02-15T18:23:35;10.38;;;3.65;;
72951;SDS011;61102;51.956;5.878;2023-02-15T18:26:02;10.35;;;3.72;;
72951;SDS011;61102;51.956;5.878;2023-02-15T18:28:28;13.02;;;4.20;;
72951;SDS011;61102;51.956;5.878;2023-02-15T18:30:54;11.40;;;3.72;;
72951;SDS011;61102;51.956;5.878;2023-02-15T18:33:32;11.15;;;3.85;;
72951;SDS011;61102;51.956;5.878;2023-02-15T18:36:01;10.25;;;3.80;;
72951;SDS011;61102;51.956;5.878;2023-02-15T18:38:29;10.40;;;3.50;;
72951;SDS011;61102;51.956;5.878;2023-02-15T18:40:56;11.30;;;4.30;;
72951;SDS011;61102;51.956;5.878;2023-02-15T18:43:23;12.38;;;4.60;;
72951;SDS011;61102;51.956;5.878;2023-02-15T18:45:49;11.68;;;4.25;;
72951;SDS011;61102;51.956;5.878;2023-02-15T18:48:15;12.77;;;4.07;;
72951;SDS011;61102;51.956;5.878;2023-02-15T18:50:42;12.13;;;4.40;;
72951;SDS011;61102;51.956;5.878;2023-02-15T18:53:14;10.77;;;3.65;;
72951;SDS011;61102;51.956;5.878;2023-02-15T18:55:43;11.90;;;4.28;;